sensor_id;sensor_type;location;lat;lon;timestamp;P1;durP1;ratioP1;P2;durP2;ratioP2
80179;SDS011;69505;52.134;5.438;2024-02-04T00:02:14;5.45;;;3.53;;
80179;SDS011;69505;52.134;5.438;2024-02-04T00:04:41;5.97;;;3.58;;
80179;SDS011;69505;52.134;5.438;2024-02-04T00:07:07;5.65;;;3.38;;
80179;SDS011;69505;52.134;5.438;2024-02-04T00:09:34;5.07;;;2.95;;
80179;SDS011;69505;52.134;5.438;2024-02-04T00:12:02;5.32;;;3.47;;
80179;SDS011;69505;52.134;5.438;2024-02-04T00:14:30;5.57;;;3.17;;
80179;SDS011;69505;52.134;5.438;2024-02-04T00:16:57;4.65;;;3.33;;
80179;SDS011;69505;52.134;5.438;2024-02-04T00:19:23;4.53;;;2.65;;
80179;SDS011;69505;52.134;5.438;2024-02-04T00:21:50;3.97;;;2.83;;
80179;SDS011;69505;52.134;5.438;2024-02-04T00:24:17;6.65;;;2.88;;
80179;SDS011;69505;52.134;5.438;2024-02-04T00:26:45;6.25;;;3.10;;
80179;SDS011;69505;52.134;5.438;2024-02-04T00:29:12;4.80;;;3.50;;
80179;SDS011;69505;52.134;5.438;2024-02-04T00:31:39;8.50;;;3.63;;
80179;SDS011;69505;52.134;5.438;2024-02-04T00:34:06;10.38;;;3.92;;
80179;SDS011;69505;52.134;5.438;2024-02-04T00:36:32;5.05;;;2.55;;
80179;SDS011;69505;52.134;5.438;2024-02-04T00:38:59;7.03;;;3.00;;
80179;SDS011;69505;52.134;5.438;2024-02-04T00:41:25;5.82;;;2.70;;
80179;SDS011;69505;52.134;5.438;2024-02-04T00:43:52;6.45;;;3.47;;
80179;SDS011;69505;52.134;5.438;2024-02-04T00:46:19;5.00;;;3.45;;
80179;SDS011;69505;52.134;5.438;2024-02-04T00:48:45;5.35;;;3.55;;
80179;SDS011;69505;52.134;5.438;2024-02-04T00:51:12;4.82;;;3.38;;
80179;SDS011;69505;52.134;5.438;2024-02-04T00:53:40;8.27;;;3.50;;
80179;SDS011;69505;52.134;5.438;2024-02-04T00:56:07;8.32;;;4.07;;
80179;SDS011;69505;52.134;5.438;2024-02-04T00:58:33;10.80;;;5.38;;
80179;SDS011;69505;52.134;5.438;2024-02-04T01:01:00;10.02;;;4.72;;
80179;SDS011;69505;52.134;5.438;2024-02-04T01:03:27;12.82;;;5.47;;
80179;SDS011;69505;52.134;5.438;2024-02-04T01:05:54;14.77;;;6.13;;
80179;SDS011;69505;52.134;5.438;2024-02-04T01:08:22;10.35;;;6.13;;
80179;SDS011;69505;52.134;5.438;2024-02-04T01:10:48;15.27;;;5.97;;
80179;SDS011;69505;52.134;5.438;2024-02-04T01:13:17;14.75;;;6.25;;
80179;SDS011;69505;52.134;5.438;2024-02-04T01:15:44;16.75;;;5.82;;
80179;SDS011;69505;52.134;5.438;2024-02-04T01:18:10;20.45;;;7.43;;
80179;SDS011;69505;52.134;5.438;2024-02-04T01:20:37;14.25;;;6.85;;
80179;SDS011;69505;52.134;5.438;2024-02-04T01:23:04;14.55;;;5.07;;
80179;SDS011;69505;52.134;5.438;2024-02-04T01:25:30;16.00;;;4.97;;
80179;SDS011;69505;52.134;5.438;2024-02-04T01:27:57;10.40;;;5.88;;
80179;SDS011;69505;52.134;5.438;2024-02-04T01:30:23;12.65;;;5.38;;
80179;SDS011;69505;52.134;5.438;2024-02-04T01:32:50;12.77;;;6.15;;
80179;SDS011;69505;52.134;5.438;2024-02-04T01:35:17;12.32;;;5.80;;
80179;SDS011;69505;52.134;5.438;2024-02-04T01:37:44;18.10;;;6.70;;
80179;SDS011;69505;52.134;5.438;2024-02-04T01:40:14;13.55;;;5.95;;
80179;SDS011;69505;52.134;5.438;2024-02-04T01:42:41;11.35;;;4.53;;
80179;SDS011;69505;52.134;5.438;2024-02-04T01:45:08;10.45;;;4.13;;
80179;SDS011;69505;52.134;5.438;2024-02-04T01:47:34;12.35;;;5.50;;
80179;SDS011;69505;52.134;5.438;2024-02-04T01:50:02;10.35;;;4.93;;
80179;SDS011;69505;52.134;5.438;2024-02-04T01:52:33;13.48;;;5.50;;
80179;SDS011;69505;52.134;5.438;2024-02-04T01:55:04;13.18;;;5.07;;
80179;SDS011;69505;52.134;5.438;2024-02-04T01:57:32;13.98;;;5.80;;
80179;SDS011;69505;52.134;5.438;2024-02-04T02:00:02;13.77;;;5.57;;
80179;SDS011;69505;52.134;5.438;2024-02-04T02:02:30;12.50;;;5.20;;
80179;SDS011;69505;52.134;5.438;2024-02-04T02:07:26;9.02;;;4.97;;
80179;SDS011;69505;52.134;5.438;2024-02-04T02:09:53;13.05;;;5.13;;
80179;SDS011;69505;52.134;5.438;2024-02-04T02:12:24;14.40;;;5.07;;
80179;SDS011;69505;52.134;5.438;2024-02-04T02:15:15;11.88;;;5.47;;
80179;SDS011;69505;52.134;5.438;2024-02-04T02:17:56;10.98;;;5.10;;
80179;SDS011;69505;52.134;5.438;2024-02-04T02:20:41;14.20;;;5.45;;
80179;SDS011;69505;52.134;5.438;2024-02-04T02:23:10;15.38;;;5.80;;
80179;SDS011;69505;52.134;5.438;2024-02-04T02:25:40;10.88;;;4.32;;
80179;SDS011;69505;52.134;5.438;2024-02-04T02:28:07;11.75;;;5.07;;
80179;SDS011;69505;52.134;5.438;2024-02-04T02:30:34;11.70;;;4.97;;
80179;SDS011;69505;52.134;5.438;2024-02-04T02:33:00;11.10;;;4.97;;
80179;SDS011;69505;52.134;5.438;2024-02-04T02:35:27;15.80;;;5.40;;
80179;SDS011;69505;52.134;5.438;2024-02-04T02:40:34;8.45;;;4.53;;
80179;SDS011;69505;52.134;5.438;2024-02-04T02:43:06;9.18;;;4.93;;
80179;SDS011;69505;52.134;5.438;2024-02-04T02:45:36;11.43;;;4.35;;
80179;SDS011;69505;52.134;5.438;2024-02-04T02:48:05;12.40;;;4.63;;
80179;SDS011;69505;52.134;5.438;2024-02-04T02:50:38;14.18;;;4.90;;
80179;SDS011;69505;52.134;5.438;2024-02-04T02:53:05;12.00;;;4.28;;
80179;SDS011;69505;52.134;5.438;2024-02-04T02:55:31;12.65;;;4.90;;
80179;SDS011;69505;52.134;5.438;2024-02-04T02:57:58;12.80;;;5.22;;
80179;SDS011;69505;52.134;5.438;2024-02-04T03:00:25;13.77;;;4.93;;
80179;SDS011;69505;52.134;5.438;2024-02-04T03:02:51;11.93;;;4.93;;
80179;SDS011;69505;52.134;5.438;2024-02-04T03:05:18;10.48;;;4.25;;
80179;SDS011;69505;52.134;5.438;2024-02-04T03:07:45;11.18;;;5.15;;
80179;SDS011;69505;52.134;5.438;2024-02-04T03:10:11;15.20;;;5.50;;
80179;SDS011;69505;52.134;5.438;2024-02-04T03:12:38;16.17;;;5.25;;
80179;SDS011;69505;52.134;5.438;2024-02-04T03:15:04;11.50;;;4.72;;
80179;SDS011;69505;52.134;5.438;2024-02-04T03:17:32;16.13;;;5.45;;
80179;SDS011;69505;52.134;5.438;2024-02-04T03:19:58;11.05;;;5.40;;
80179;SDS011;69505;52.134;5.438;2024-02-04T03:22:25;12.70;;;5.93;;
80179;SDS011;69505;52.134;5.438;2024-02-04T03:24:52;13.00;;;5.13;;
80179;SDS011;69505;52.134;5.438;2024-02-04T03:27:20;10.20;;;5.18;;
80179;SDS011;69505;52.134;5.438;2024-02-04T03:29:47;8.30;;;4.75;;
80179;SDS011;69505;52.134;5.438;2024-02-04T03:32:14;11.43;;;5.50;;
80179;SDS011;69505;52.134;5.438;2024-02-04T03:34:41;13.75;;;4.75;;
80179;SDS011;69505;52.134;5.438;2024-02-04T03:37:08;10.02;;;4.63;;
80179;SDS011;69505;52.134;5.438;2024-02-04T03:39:35;9.45;;;4.47;;
80179;SDS011;69505;52.134;5.438;2024-02-04T03:42:01;10.50;;;3.80;;
80179;SDS011;69505;52.134;5.438;2024-02-04T03:44:28;10.73;;;3.58;;
80179;SDS011;69505;52.134;5.438;2024-02-04T03:46:54;11.10;;;3.75;;
80179;SDS011;69505;52.134;5.438;2024-02-04T03:49:21;9.98;;;2.40;;
80179;SDS011;69505;52.134;5.438;2024-02-04T03:51:48;6.45;;;2.88;;
80179;SDS011;69505;52.134;5.438;2024-02-04T03:54:14;8.43;;;2.72;;
80179;SDS011;69505;52.134;5.438;2024-02-04T03:56:41;10.55;;;3.55;;
80179;SDS011;69505;52.134;5.438;2024-02-04T03:59:09;9.82;;;2.80;;
80179;SDS011;69505;52.134;5.438;2024-02-04T04:01:37;8.80;;;2.65;;
80179;SDS011;69505;52.134;5.438;2024-02-04T04:04:04;6.20;;;2.22;;
80179;SDS011;69505;52.134;5.438;2024-02-04T04:06:31;6.53;;;1.98;;
80179;SDS011;69505;52.134;5.438;2024-02-04T04:08:58;9.95;;;2.38;;
80179;SDS011;69505;52.134;5.438;2024-02-04T04:11:25;6.05;;;1.77;;
80179;SDS011;69505;52.134;5.438;2024-02-04T04:13:52;6.70;;;2.05;;
80179;SDS011;69505;52.134;5.438;2024-02-04T04:16:22;7.85;;;2.35;;
80179;SDS011;69505;52.134;5.438;2024-02-04T04:18:49;6.93;;;2.10;;
80179;SDS011;69505;52.134;5.438;2024-02-04T04:21:16;6.68;;;2.28;;
80179;SDS011;69505;52.134;5.438;2024-02-04T04:23:43;7.55;;;2.83;;
80179;SDS011;69505;52.134;5.438;2024-02-04T04:26:10;10.00;;;2.17;;
80179;SDS011;69505;52.134;5.438;2024-02-04T04:28:37;8.40;;;2.90;;
80179;SDS011;69505;52.134;5.438;2024-02-04T04:31:04;6.78;;;2.58;;
80179;SDS011;69505;52.134;5.438;2024-02-04T04:33:31;8.45;;;2.75;;
80179;SDS011;69505;52.134;5.438;2024-02-04T04:35:58;8.32;;;2.50;;
80179;SDS011;69505;52.134;5.438;2024-02-04T04:38:24;7.28;;;2.47;;
80179;SDS011;69505;52.134;5.438;2024-02-04T04:40:51;10.05;;;2.85;;
80179;SDS011;69505;52.134;5.438;2024-02-04T04:43:17;7.95;;;3.13;;
80179;SDS011;69505;52.134;5.438;2024-02-04T04:45:44;12.70;;;3.53;;
80179;SDS011;69505;52.134;5.438;2024-02-04T04:48:10;9.70;;;2.97;;
80179;SDS011;69505;52.134;5.438;2024-02-04T04:50:37;9.73;;;2.95;;
80179;SDS011;69505;52.134;5.438;2024-02-04T04:53:04;8.55;;;3.05;;
80179;SDS011;69505;52.134;5.438;2024-02-04T04:55:30;6.28;;;3.33;;
80179;SDS011;69505;52.134;5.438;2024-02-04T04:57:57;9.18;;;3.38;;
80179;SDS011;69505;52.134;5.438;2024-02-04T05:00:24;7.53;;;3.30;;
80179;SDS011;69505;52.134;5.438;2024-02-04T05:02:50;6.63;;;2.58;;
80179;SDS011;69505;52.134;5.438;2024-02-04T05:05:17;8.38;;;3.38;;
80179;SDS011;69505;52.134;5.438;2024-02-04T05:07:43;8.82;;;2.78;;
80179;SDS011;69505;52.134;5.438;2024-02-04T05:10:10;5.65;;;2.45;;
80179;SDS011;69505;52.134;5.438;2024-02-04T05:12:37;5.43;;;2.70;;
80179;SDS011;69505;52.134;5.438;2024-02-04T05:15:04;5.60;;;2.35;;
80179;SDS011;69505;52.134;5.438;2024-02-04T05:17:31;12.65;;;3.00;;
80179;SDS011;69505;52.134;5.438;2024-02-04T05:20:00;5.07;;;2.55;;
80179;SDS011;69505;52.134;5.438;2024-02-04T05:22:27;9.68;;;2.90;;
80179;SDS011;69505;52.134;5.438;2024-02-04T05:24:53;4.88;;;2.97;;
80179;SDS011;69505;52.134;5.438;2024-02-04T05:27:20;6.70;;;2.63;;
80179;SDS011;69505;52.134;5.438;2024-02-04T05:29:46;7.03;;;2.60;;
80179;SDS011;69505;52.134;5.438;2024-02-04T05:32:13;7.32;;;3.40;;
80179;SDS011;69505;52.134;5.438;2024-02-04T05:34:40;10.68;;;3.90;;
80179;SDS011;69505;52.134;5.438;2024-02-04T05:37:07;9.63;;;3.80;;
80179;SDS011;69505;52.134;5.438;2024-02-04T05:39:33;9.23;;;3.45;;
80179;SDS011;69505;52.134;5.438;2024-02-04T05:42:00;11.32;;;3.83;;
80179;SDS011;69505;52.134;5.438;2024-02-04T05:44:27;5.32;;;2.53;;
80179;SDS011;69505;52.134;5.438;2024-02-04T05:46:54;8.43;;;3.47;;
80179;SDS011;69505;52.134;5.438;2024-02-04T05:49:20;13.90;;;4.03;;
80179;SDS011;69505;52.134;5.438;2024-02-04T05:51:47;9.88;;;3.55;;
80179;SDS011;69505;52.134;5.438;2024-02-04T05:54:14;8.80;;;3.42;;
80179;SDS011;69505;52.134;5.438;2024-02-04T05:56:40;6.65;;;2.80;;
80179;SDS011;69505;52.134;5.438;2024-02-04T05:59:07;6.10;;;3.30;;
80179;SDS011;69505;52.134;5.438;2024-02-04T06:01:33;7.40;;;2.63;;
80179;SDS011;69505;52.134;5.438;2024-02-04T06:04:00;8.70;;;2.85;;
80179;SDS011;69505;52.134;5.438;2024-02-04T06:06:27;7.38;;;3.08;;
80179;SDS011;69505;52.134;5.438;2024-02-04T06:08:54;7.80;;;3.15;;
80179;SDS011;69505;52.134;5.438;2024-02-04T06:11:20;7.72;;;3.10;;
80179;SDS011;69505;52.134;5.438;2024-02-04T06:13:47;7.13;;;3.08;;
80179;SDS011;69505;52.134;5.438;2024-02-04T06:16:13;8.43;;;3.63;;
80179;SDS011;69505;52.134;5.438;2024-02-04T06:18:40;4.90;;;2.72;;
80179;SDS011;69505;52.134;5.438;2024-02-04T06:21:07;9.82;;;3.97;;
80179;SDS011;69505;52.134;5.438;2024-02-04T06:23:34;7.18;;;3.15;;
80179;SDS011;69505;52.134;5.438;2024-02-04T06:26:01;6.32;;;3.05;;
80179;SDS011;69505;52.134;5.438;2024-02-04T06:28:28;8.15;;;4.22;;
80179;SDS011;69505;52.134;5.438;2024-02-04T06:30:55;9.38;;;3.80;;
80179;SDS011;69505;52.134;5.438;2024-02-04T06:33:22;6.88;;;3.60;;
80179;SDS011;69505;52.134;5.438;2024-02-04T06:35:50;7.85;;;3.88;;
80179;SDS011;69505;52.134;5.438;2024-02-04T06:38:16;9.07;;;4.18;;
80179;SDS011;69505;52.134;5.438;2024-02-04T06:40:43;7.68;;;4.45;;
80179;SDS011;69505;52.134;5.438;2024-02-04T06:43:10;10.43;;;4.95;;
80179;SDS011;69505;52.134;5.438;2024-02-04T06:45:36;8.27;;;3.92;;
80179;SDS011;69505;52.134;5.438;2024-02-04T06:48:03;9.57;;;4.95;;
80179;SDS011;69505;52.134;5.438;2024-02-04T06:50:30;10.00;;;5.18;;
80179;SDS011;69505;52.134;5.438;2024-02-04T06:52:57;11.32;;;5.72;;
80179;SDS011;69505;52.134;5.438;2024-02-04T06:55:23;10.15;;;5.28;;
80179;SDS011;69505;52.134;5.438;2024-02-04T06:57:50;9.65;;;6.13;;
80179;SDS011;69505;52.134;5.438;2024-02-04T07:00:17;12.68;;;5.70;;
80179;SDS011;69505;52.134;5.438;2024-02-04T07:02:43;13.15;;;5.80;;
80179;SDS011;69505;52.134;5.438;2024-02-04T07:05:10;16.52;;;6.32;;
80179;SDS011;69505;52.134;5.438;2024-02-04T07:07:37;10.60;;;5.88;;
80179;SDS011;69505;52.134;5.438;2024-02-04T07:10:04;14.98;;;6.30;;
80179;SDS011;69505;52.134;5.438;2024-02-04T07:12:31;12.93;;;6.50;;
80179;SDS011;69505;52.134;5.438;2024-02-04T07:14:58;16.77;;;5.60;;
80179;SDS011;69505;52.134;5.438;2024-02-04T07:17:25;11.60;;;6.22;;
80179;SDS011;69505;52.134;5.438;2024-02-04T07:19:52;15.77;;;6.88;;
80179;SDS011;69505;52.134;5.438;2024-02-04T07:22:19;12.95;;;6.22;;
80179;SDS011;69505;52.134;5.438;2024-02-04T07:24:45;10.05;;;5.70;;
80179;SDS011;69505;52.134;5.438;2024-02-04T07:27:12;9.48;;;5.30;;
80179;SDS011;69505;52.134;5.438;2024-02-04T07:29:39;15.48;;;4.82;;
80179;SDS011;69505;52.134;5.438;2024-02-04T07:32:05;11.15;;;4.97;;
80179;SDS011;69505;52.134;5.438;2024-02-04T07:34:32;11.00;;;6.13;;
80179;SDS011;69505;52.134;5.438;2024-02-04T07:36:59;12.32;;;6.35;;
80179;SDS011;69505;52.134;5.438;2024-02-04T07:39:25;9.95;;;6.00;;
80179;SDS011;69505;52.134;5.438;2024-02-04T07:41:52;9.32;;;5.68;;
80179;SDS011;69505;52.134;5.438;2024-02-04T07:44:20;13.05;;;6.03;;
80179;SDS011;69505;52.134;5.438;2024-02-04T07:46:47;10.90;;;5.60;;
80179;SDS011;69505;52.134;5.438;2024-02-04T07:49:13;9.55;;;5.22;;
80179;SDS011;69505;52.134;5.438;2024-02-04T07:51:40;11.43;;;5.72;;
80179;SDS011;69505;52.134;5.438;2024-02-04T07:54:07;9.95;;;5.07;;
80179;SDS011;69505;52.134;5.438;2024-02-04T07:56:33;7.68;;;3.97;;
80179;SDS011;69505;52.134;5.438;2024-02-04T07:59:00;10.30;;;4.13;;
80179;SDS011;69505;52.134;5.438;2024-02-04T08:01:26;7.85;;;4.25;;
80179;SDS011;69505;52.134;5.438;2024-02-04T08:03:53;8.23;;;4.13;;
80179;SDS011;69505;52.134;5.438;2024-02-04T08:06:20;8.10;;;4.22;;
80179;SDS011;69505;52.134;5.438;2024-02-04T08:08:46;8.73;;;3.30;;
80179;SDS011;69505;52.134;5.438;2024-02-04T08:11:17;7.93;;;2.83;;
80179;SDS011;69505;52.134;5.438;2024-02-04T08:13:45;5.57;;;2.92;;
80179;SDS011;69505;52.134;5.438;2024-02-04T08:16:11;7.65;;;2.78;;
80179;SDS011;69505;52.134;5.438;2024-02-04T08:18:39;5.68;;;2.45;;
80179;SDS011;69505;52.134;5.438;2024-02-04T08:21:06;4.55;;;2.63;;
80179;SDS011;69505;52.134;5.438;2024-02-04T08:23:33;4.88;;;2.80;;
80179;SDS011;69505;52.134;5.438;2024-02-04T08:26:00;6.10;;;2.47;;
80179;SDS011;69505;52.134;5.438;2024-02-04T08:28:26;6.30;;;2.53;;
80179;SDS011;69505;52.134;5.438;2024-02-04T08:30:53;6.32;;;2.75;;
80179;SDS011;69505;52.134;5.438;2024-02-04T08:33:19;6.78;;;1.90;;
80179;SDS011;69505;52.134;5.438;2024-02-04T08:35:47;6.80;;;2.20;;
80179;SDS011;69505;52.134;5.438;2024-02-04T08:38:14;5.55;;;1.48;;
80179;SDS011;69505;52.134;5.438;2024-02-04T08:40:41;6.40;;;2.75;;
80179;SDS011;69505;52.134;5.438;2024-02-04T08:43:07;5.05;;;2.30;;
80179;SDS011;69505;52.134;5.438;2024-02-04T08:45:34;5.60;;;2.40;;
80179;SDS011;69505;52.134;5.438;2024-02-04T08:48:01;3.75;;;1.48;;
80179;SDS011;69505;52.134;5.438;2024-02-04T08:50:28;6.25;;;2.05;;
80179;SDS011;69505;52.134;5.438;2024-02-04T08:52:55;3.50;;;1.90;;
80179;SDS011;69505;52.134;5.438;2024-02-04T08:55:22;5.38;;;2.63;;
80179;SDS011;69505;52.134;5.438;2024-02-04T08:57:49;3.63;;;1.98;;
80179;SDS011;69505;52.134;5.438;2024-02-04T09:00:16;4.00;;;2.28;;
80179;SDS011;69505;52.134;5.438;2024-02-04T09:02:43;5.10;;;2.78;;
80179;SDS011;69505;52.134;5.438;2024-02-04T09:05:10;4.28;;;2.60;;
80179;SDS011;69505;52.134;5.438;2024-02-04T09:07:36;13.27;;;3.60;;
80179;SDS011;69505;52.134;5.438;2024-02-04T09:10:03;6.97;;;4.10;;
80179;SDS011;69505;52.134;5.438;2024-02-04T09:12:30;7.03;;;3.80;;
80179;SDS011;69505;52.134;5.438;2024-02-04T09:14:57;7.03;;;3.92;;
80179;SDS011;69505;52.134;5.438;2024-02-04T09:17:24;7.97;;;3.63;;
80179;SDS011;69505;52.134;5.438;2024-02-04T09:19:50;7.70;;;3.88;;
80179;SDS011;69505;52.134;5.438;2024-02-04T09:22:17;6.70;;;3.60;;
80179;SDS011;69505;52.134;5.438;2024-02-04T09:24:44;5.18;;;3.45;;
80179;SDS011;69505;52.134;5.438;2024-02-04T09:27:11;5.45;;;3.22;;
80179;SDS011;69505;52.134;5.438;2024-02-04T09:29:38;9.15;;;3.28;;
80179;SDS011;69505;52.134;5.438;2024-02-04T09:32:04;6.15;;;3.00;;
80179;SDS011;69505;52.134;5.438;2024-02-04T09:34:32;5.53;;;3.22;;
80179;SDS011;69505;52.134;5.438;2024-02-04T09:36:59;5.05;;;2.90;;
80179;SDS011;69505;52.134;5.438;2024-02-04T09:39:25;5.38;;;2.75;;
80179;SDS011;69505;52.134;5.438;2024-02-04T09:41:53;4.53;;;2.35;;
80179;SDS011;69505;52.134;5.438;2024-02-04T09:44:21;7.68;;;2.92;;
80179;SDS011;69505;52.134;5.438;2024-02-04T09:46:49;4.38;;;2.20;;
80179;SDS011;69505;52.134;5.438;2024-02-04T09:49:16;4.28;;;2.10;;
80179;SDS011;69505;52.134;5.438;2024-02-04T09:51:43;7.95;;;2.47;;
80179;SDS011;69505;52.134;5.438;2024-02-04T09:54:10;3.20;;;2.03;;
80179;SDS011;69505;52.134;5.438;2024-02-04T09:56:38;4.55;;;1.70;;
80179;SDS011;69505;52.134;5.438;2024-02-04T10:01:34;4.07;;;2.00;;
80179;SDS011;69505;52.134;5.438;2024-02-04T10:04:02;5.22;;;1.92;;
80179;SDS011;69505;52.134;5.438;2024-02-04T10:06:31;3.65;;;1.77;;
80179;SDS011;69505;52.134;5.438;2024-02-04T10:08:58;5.70;;;2.25;;
80179;SDS011;69505;52.134;5.438;2024-02-04T10:11:26;4.50;;;2.05;;
80179;SDS011;69505;52.134;5.438;2024-02-04T10:13:53;3.60;;;2.03;;
80179;SDS011;69505;52.134;5.438;2024-02-04T10:16:19;5.35;;;1.98;;
80179;SDS011;69505;52.134;5.438;2024-02-04T10:18:47;3.33;;;1.73;;
80179;SDS011;69505;52.134;5.438;2024-02-04T10:21:21;3.65;;;1.75;;
80179;SDS011;69505;52.134;5.438;2024-02-04T10:23:50;3.83;;;1.60;;
80179;SDS011;69505;52.134;5.438;2024-02-04T10:26:17;5.78;;;1.85;;
80179;SDS011;69505;52.134;5.438;2024-02-04T10:28:46;4.18;;;1.50;;
80179;SDS011;69505;52.134;5.438;2024-02-04T10:31:14;3.70;;;1.35;;
80179;SDS011;69505;52.134;5.438;2024-02-04T10:33:41;3.83;;;1.90;;
80179;SDS011;69505;52.134;5.438;2024-02-04T10:36:07;3.85;;;0.85;;
80179;SDS011;69505;52.134;5.438;2024-02-04T10:38:34;6.00;;;2.05;;
80179;SDS011;69505;52.134;5.438;2024-02-04T10:41:01;3.63;;;1.23;;
80179;SDS011;69505;52.134;5.438;2024-02-04T10:43:32;3.00;;;1.15;;
80179;SDS011;69505;52.134;5.438;2024-02-04T10:46:09;2.83;;;1.10;;
80179;SDS011;69505;52.134;5.438;2024-02-04T10:48:43;2.10;;;1.30;;
80179;SDS011;69505;52.134;5.438;2024-02-04T10:51:13;3.97;;;1.20;;
80179;SDS011;69505;52.134;5.438;2024-02-04T10:53:41;3.38;;;1.17;;
80179;SDS011;69505;52.134;5.438;2024-02-04T10:58:52;4.35;;;1.38;;
80179;SDS011;69505;52.134;5.438;2024-02-04T11:01:19;2.30;;;1.13;;
80179;SDS011;69505;52.134;5.438;2024-02-04T11:03:48;3.47;;;1.20;;
80179;SDS011;69505;52.134;5.438;2024-02-04T11:06:16;1.45;;;0.80;;
80179;SDS011;69505;52.134;5.438;2024-02-04T11:08:44;1.85;;;1.08;;
80179;SDS011;69505;52.134;5.438;2024-02-04T11:11:11;3.30;;;1.05;;
80179;SDS011;69505;52.134;5.438;2024-02-04T11:13:38;2.22;;;1.10;;
80179;SDS011;69505;52.134;5.438;2024-02-04T11:16:15;3.42;;;1.20;;
80179;SDS011;69505;52.134;5.438;2024-02-04T11:19:00;3.88;;;1.25;;
80179;SDS011;69505;52.134;5.438;2024-02-04T11:21:57;1.70;;;1.10;;
80179;SDS011;69505;52.134;5.438;2024-02-04T11:27:14;2.15;;;1.15;;
80179;SDS011;69505;52.134;5.438;2024-02-04T11:29:42;1.55;;;0.73;;
80179;SDS011;69505;52.134;5.438;2024-02-04T11:32:09;1.75;;;1.10;;
80179;SDS011;69505;52.134;5.438;2024-02-04T11:34:35;2.08;;;1.40;;
80179;SDS011;69505;52.134;5.438;2024-02-04T11:37:14;1.80;;;0.70;;
80179;SDS011;69505;52.134;5.438;2024-02-04T11:39:53;2.10;;;1.40;;
80179;SDS011;69505;52.134;5.438;2024-02-04T11:42:25;1.63;;;1.17;;
80179;SDS011;69505;52.134;5.438;2024-02-04T11:45:07;2.70;;;1.67;;
80179;SDS011;69505;52.134;5.438;2024-02-04T11:47:35;2.97;;;1.60;;
80179;SDS011;69505;52.134;5.438;2024-02-04T11:50:03;3.15;;;1.80;;
80179;SDS011;69505;52.134;5.438;2024-02-04T11:52:31;3.30;;;1.60;;
80179;SDS011;69505;52.134;5.438;2024-02-04T11:54:58;2.58;;;1.13;;
80179;SDS011;69505;52.134;5.438;2024-02-04T11:57:25;3.47;;;2.00;;
80179;SDS011;69505;52.134;5.438;2024-02-04T11:59:52;3.45;;;1.73;;
80179;SDS011;69505;52.134;5.438;2024-02-04T12:04:48;5.72;;;2.17;;
80179;SDS011;69505;52.134;5.438;2024-02-04T12:07:15;3.67;;;1.80;;
80179;SDS011;69505;52.134;5.438;2024-02-04T12:09:42;3.97;;;1.98;;
80179;SDS011;69505;52.134;5.438;2024-02-04T12:12:09;4.32;;;2.05;;
80179;SDS011;69505;52.134;5.438;2024-02-04T12:14:36;6.28;;;2.45;;
80179;SDS011;69505;52.134;5.438;2024-02-04T12:17:09;5.38;;;1.83;;
80179;SDS011;69505;52.134;5.438;2024-02-04T12:19:37;3.83;;;1.70;;
80179;SDS011;69505;52.134;5.438;2024-02-04T12:22:10;6.75;;;1.80;;
80179;SDS011;69505;52.134;5.438;2024-02-04T12:24:38;4.50;;;1.67;;
80179;SDS011;69505;52.134;5.438;2024-02-04T12:27:05;4.13;;;1.55;;
80179;SDS011;69505;52.134;5.438;2024-02-04T12:29:33;4.22;;;1.80;;
80179;SDS011;69505;52.134;5.438;2024-02-04T12:32:00;5.32;;;2.08;;
80179;SDS011;69505;52.134;5.438;2024-02-04T12:34:30;5.40;;;1.83;;
80179;SDS011;69505;52.134;5.438;2024-02-04T12:36:57;4.30;;;1.33;;
80179;SDS011;69505;52.134;5.438;2024-02-04T12:39:26;5.45;;;1.98;;
80179;SDS011;69505;52.134;5.438;2024-02-04T12:41:53;5.20;;;1.48;;
80179;SDS011;69505;52.134;5.438;2024-02-04T12:44:20;4.75;;;1.80;;
80179;SDS011;69505;52.134;5.438;2024-02-04T12:46:52;4.90;;;1.50;;
80179;SDS011;69505;52.134;5.438;2024-02-04T12:49:19;6.70;;;1.17;;
80179;SDS011;69505;52.134;5.438;2024-02-04T12:51:50;6.80;;;2.05;;
80179;SDS011;69505;52.134;5.438;2024-02-04T12:54:21;5.22;;;1.92;;
80179;SDS011;69505;52.134;5.438;2024-02-04T12:56:49;3.00;;;1.55;;
80179;SDS011;69505;52.134;5.438;2024-02-04T12:59:32;5.18;;;1.67;;
80179;SDS011;69505;52.134;5.438;2024-02-04T13:02:01;3.70;;;1.25;;
80179;SDS011;69505;52.134;5.438;2024-02-04T13:04:37;3.72;;;1.58;;
80179;SDS011;69505;52.134;5.438;2024-02-04T13:07:09;3.67;;;1.48;;
80179;SDS011;69505;52.134;5.438;2024-02-04T13:09:38;4.10;;;1.75;;
80179;SDS011;69505;52.134;5.438;2024-02-04T13:12:06;7.47;;;1.65;;
80179;SDS011;69505;52.134;5.438;2024-02-04T13:14:36;3.75;;;1.30;;
80179;SDS011;69505;52.134;5.438;2024-02-04T13:17:04;5.10;;;1.33;;
80179;SDS011;69505;52.134;5.438;2024-02-04T13:22:04;3.45;;;1.75;;
80179;SDS011;69505;52.134;5.438;2024-02-04T13:24:32;3.90;;;1.83;;
80179;SDS011;69505;52.134;5.438;2024-02-04T13:26:59;3.90;;;1.02;;
80179;SDS011;69505;52.134;5.438;2024-02-04T13:29:27;3.20;;;1.35;;
80179;SDS011;69505;52.134;5.438;2024-02-04T13:31:54;5.38;;;1.63;;
80179;SDS011;69505;52.134;5.438;2024-02-04T13:34:22;3.42;;;1.42;;
80179;SDS011;69505;52.134;5.438;2024-02-04T13:36:49;3.22;;;1.40;;
80179;SDS011;69505;52.134;5.438;2024-02-04T13:39:16;5.78;;;1.55;;
80179;SDS011;69505;52.134;5.438;2024-02-04T13:41:44;2.33;;;1.65;;
80179;SDS011;69505;52.134;5.438;2024-02-04T13:44:11;4.93;;;1.40;;
80179;SDS011;69505;52.134;5.438;2024-02-04T13:46:37;4.00;;;1.42;;
80179;SDS011;69505;52.134;5.438;2024-02-04T13:49:08;3.95;;;1.35;;
80179;SDS011;69505;52.134;5.438;2024-02-04T13:51:36;2.58;;;1.50;;
80179;SDS011;69505;52.134;5.438;2024-02-04T13:54:10;5.10;;;1.58;;
80179;SDS011;69505;52.134;5.438;2024-02-04T13:56:42;4.15;;;1.40;;
80179;SDS011;69505;52.134;5.438;2024-02-04T13:59:09;5.47;;;1.63;;
80179;SDS011;69505;52.134;5.438;2024-02-04T14:01:36;10.20;;;2.00;;
80179;SDS011;69505;52.134;5.438;2024-02-04T14:04:02;5.18;;;2.15;;
80179;SDS011;69505;52.134;5.438;2024-02-04T14:06:29;8.23;;;2.22;;
80179;SDS011;69505;52.134;5.438;2024-02-04T14:08:56;6.22;;;2.25;;
80179;SDS011;69505;52.134;5.438;2024-02-04T14:11:22;4.65;;;2.45;;
80179;SDS011;69505;52.134;5.438;2024-02-04T14:13:49;9.20;;;2.65;;
80179;SDS011;69505;52.134;5.438;2024-02-04T14:16:16;6.30;;;1.95;;
80179;SDS011;69505;52.134;5.438;2024-02-04T14:18:42;5.25;;;2.22;;
80179;SDS011;69505;52.134;5.438;2024-02-04T14:21:12;9.10;;;2.50;;
80179;SDS011;69505;52.134;5.438;2024-02-04T14:23:41;7.57;;;2.67;;
80179;SDS011;69505;52.134;5.438;2024-02-04T14:26:07;5.82;;;2.88;;
80179;SDS011;69505;52.134;5.438;2024-02-04T14:28:34;10.30;;;2.78;;
80179;SDS011;69505;52.134;5.438;2024-02-04T14:31:07;7.30;;;2.92;;
80179;SDS011;69505;52.134;5.438;2024-02-04T14:33:34;8.00;;;2.55;;
80179;SDS011;69505;52.134;5.438;2024-02-04T14:36:01;7.57;;;2.85;;
80179;SDS011;69505;52.134;5.438;2024-02-04T14:38:27;9.98;;;2.78;;
80179;SDS011;69505;52.134;5.438;2024-02-04T14:40:54;5.53;;;2.47;;
80179;SDS011;69505;52.134;5.438;2024-02-04T14:43:20;4.50;;;2.30;;
80179;SDS011;69505;52.134;5.438;2024-02-04T14:45:49;6.90;;;2.22;;
80179;SDS011;69505;52.134;5.438;2024-02-04T14:48:16;10.68;;;2.40;;
80179;SDS011;69505;52.134;5.438;2024-02-04T14:50:43;7.97;;;2.67;;
80179;SDS011;69505;52.134;5.438;2024-02-04T14:53:10;7.50;;;2.63;;
80179;SDS011;69505;52.134;5.438;2024-02-04T14:55:36;6.50;;;1.90;;
80179;SDS011;69505;52.134;5.438;2024-02-04T14:58:03;6.28;;;2.10;;
80179;SDS011;69505;52.134;5.438;2024-02-04T15:00:30;7.65;;;2.55;;
80179;SDS011;69505;52.134;5.438;2024-02-04T15:02:57;5.03;;;1.83;;
80179;SDS011;69505;52.134;5.438;2024-02-04T15:05:23;4.95;;;2.15;;